createdAt,value
2023-01-25T00:00:31.485Z,3.58
2023-01-25T00:02:58.500Z,3.00
2023-01-25T00:05:25.334Z,2.80
2023-01-25T00:07:52.206Z,3.58
2023-01-25T00:10:19.391Z,3.60
2023-01-25T00:12:46.241Z,3.10
2023-01-25T00:15:13.127Z,3.15
2023-01-25T00:17:39.949Z,3.47
2023-01-25T00:20:07.445Z,3.28
2023-01-25T00:22:34.171Z,3.78
2023-01-25T00:25:00.933Z,4.60
2023-01-25T00:27:27.731Z,3.83
2023-01-25T00:29:54.447Z,3.88
2023-01-25T00:32:21.278Z,3.83
2023-01-25T00:34:50.481Z,3.67
2023-01-25T00:37:24.574Z,3.25
2023-01-25T00:39:52.249Z,2.63
2023-01-25T00:42:20.025Z,2.80
2023-01-25T00:44:47.899Z,2.60
2023-01-25T00:47:15.580Z,2.15
2023-01-25T00:49:43.506Z,2.65
2023-01-25T00:52:10.761Z,2.90
2023-01-25T00:54:37.693Z,3.67
2023-01-25T00:57:04.848Z,3.55
2023-01-25T00:59:31.814Z,3.85
2023-01-25T01:02:00.921Z,3.33
2023-01-25T01:04:27.900Z,3.42
2023-01-25T01:06:56.044Z,3.83
2023-01-25T01:09:24.463Z,4.20
2023-01-25T01:11:51.359Z,4.20
2023-01-25T01:14:18.567Z,4.00
2023-01-25T01:16:45.380Z,4.20
2023-01-25T01:19:12.351Z,3.88
2023-01-25T01:21:39.733Z,3.78
2023-01-25T01:24:06.978Z,3.25
2023-01-25T01:26:33.826Z,3.42
2023-01-25T01:29:00.730Z,3.40
2023-01-25T01:31:28.046Z,3.60
2023-01-25T01:33:56.885Z,3.53
2023-01-25T01:36:26.620Z,2.72
2023-01-25T01:38:53.461Z,3.13
2023-01-25T01:41:21.176Z,2.80
2023-01-25T01:43:48.716Z,3.42
2023-01-25T01:46:18.515Z,2.70
2023-01-25T01:48:51.360Z,3.35
2023-01-25T01:51:40.877Z,2.90
2023-01-25T01:54:26.194Z,2.88
2023-01-25T01:57:00.730Z,3.63
2023-01-25T01:59:36.643Z,3.17
2023-01-25T02:02:03.885Z,2.70
2023-01-25T02:04:32.248Z,2.80
2023-01-25T02:07:13.919Z,2.90
2023-01-25T02:09:41.559Z,2.20
2023-01-25T02:12:10.031Z,2.78
2023-01-25T02:14:40.036Z,3.00
2023-01-25T02:17:06.964Z,4.10
2023-01-25T02:19:36.906Z,4.50
2023-01-25T02:22:13.502Z,4.57
2023-01-25T02:24:51.064Z,4.70
2023-01-25T02:27:19.123Z,4.65
2023-01-25T02:29:49.495Z,4.70
2023-01-25T02:32:16.366Z,3.90
2023-01-25T02:34:43.194Z,4.10
2023-01-25T02:37:14.893Z,4.13
2023-01-25T02:39:42.599Z,3.83
2023-01-25T02:42:09.419Z,3.95
2023-01-25T02:44:37.754Z,3.13
2023-01-25T02:47:04.685Z,4.22
2023-01-25T02:49:34.565Z,3.75
2023-01-25T02:52:02.024Z,3.78
2023-01-25T02:54:29.183Z,3.35
2023-01-25T02:56:56.566Z,3.15
2023-01-25T02:59:23.917Z,2.63
2023-01-25T03:01:50.837Z,2.70
2023-01-25T03:04:17.724Z,2.70
2023-01-25T03:06:44.884Z,2.78
2023-01-25T03:09:12.458Z,2.45
2023-01-25T03:11:39.337Z,2.70
2023-01-25T03:14:06.171Z,2.97
2023-01-25T03:16:33.968Z,3.30
2023-01-25T03:19:00.828Z,3.70
2023-01-25T03:21:27.867Z,3.28
2023-01-25T03:23:57.605Z,3.63
2023-01-25T03:26:26.112Z,4.20
2023-01-25T03:28:52.908Z,4.53
2023-01-25T03:31:19.850Z,3.78
2023-01-25T03:33:46.874Z,3.92
2023-01-25T03:36:14.150Z,4.15
2023-01-25T03:38:41.162Z,4.63
2023-01-25T03:41:09.373Z,3.75
2023-01-25T03:43:36.217Z,3.00
2023-01-25T03:46:03.152Z,2.85
2023-01-25T03:48:30.131Z,3.28
2023-01-25T03:50:58.778Z,3.50
2023-01-25T03:53:30.144Z,3.78
2023-01-25T03:56:11.890Z,3.35
2023-01-25T03:58:39.829Z,3.90
2023-01-25T04:01:08.210Z,4.35
2023-01-25T04:03:35.736Z,3.67
2023-01-25T04:06:02.585Z,3.10
2023-01-25T04:08:30.513Z,3.72
2023-01-25T04:11:02.077Z,3.30
2023-01-25T04:13:29.286Z,3.20
2023-01-25T04:15:56.529Z,2.25
2023-01-25T04:18:23.605Z,1.85
2023-01-25T04:20:54.835Z,2.67
2023-01-25T04:23:22.082Z,3.28
2023-01-25T04:25:56.777Z,2.53
2023-01-25T04:28:23.876Z,2.97
2023-01-25T04:30:50.802Z,3.30
2023-01-25T04:33:17.866Z,3.33
2023-01-25T04:35:44.857Z,3.08
2023-01-25T04:38:12.561Z,3.60
2023-01-25T04:40:40.149Z,2.97
2023-01-25T04:43:07.386Z,2.63
2023-01-25T04:45:36.301Z,2.97
2023-01-25T04:48:05.548Z,3.30
2023-01-25T04:50:32.687Z,2.92
2023-01-25T04:52:59.519Z,3.42
2023-01-25T04:55:26.491Z,2.97
2023-01-25T04:57:53.303Z,2.95
2023-01-25T05:00:20.736Z,2.97
2023-01-25T05:02:47.828Z,2.35
2023-01-25T05:05:15.229Z,2.40
2023-01-25T05:07:42.198Z,3.00
2023-01-25T05:10:09.818Z,3.30
2023-01-25T05:12:36.898Z,4.18
2023-01-25T05:15:04.291Z,3.85
2023-01-25T05:17:31.419Z,3.50
2023-01-25T05:19:58.356Z,3.03
2023-01-25T05:22:25.193Z,3.75
2023-01-25T05:24:52.374Z,4.03
2023-01-25T05:27:20.458Z,4.28
2023-01-25T05:29:47.765Z,3.97
2023-01-25T05:32:16.772Z,3.63
2023-01-25T05:34:44.087Z,2.60
2023-01-25T05:37:13.360Z,2.65
2023-01-25T05:39:40.444Z,1.75
2023-01-25T05:42:18.679Z,1.70
2023-01-25T05:44:47.558Z,1.90
2023-01-25T05:47:16.317Z,2.25
2023-01-25T05:49:43.623Z,2.10
2023-01-25T05:52:17.418Z,2.63
2023-01-25T05:54:44.580Z,2.90
2023-01-25T05:57:13.919Z,2.83
2023-01-25T05:59:40.922Z,2.60
2023-01-25T06:02:07.888Z,2.40
2023-01-25T06:04:34.751Z,2.10
2023-01-25T06:07:01.971Z,2.30
2023-01-25T06:09:28.776Z,2.42
2023-01-25T06:11:55.528Z,2.90
2023-01-25T06:14:23.897Z,2.42
2023-01-25T06:16:50.842Z,2.10
2023-01-25T06:19:17.775Z,2.47
2023-01-25T06:21:44.658Z,2.10
2023-01-25T06:24:11.571Z,2.78
2023-01-25T06:26:38.446Z,3.42
2023-01-25T06:29:06.928Z,3.13
2023-01-25T06:31:34.847Z,2.92
2023-01-25T06:34:04.622Z,2.88
2023-01-25T06:36:31.443Z,2.72
2023-01-25T06:39:02.079Z,3.55
2023-01-25T06:41:32.189Z,3.95
2023-01-25T06:43:59.185Z,3.78
2023-01-25T06:46:28.438Z,3.40
2023-01-25T06:48:55.465Z,3.05
2023-01-25T06:51:22.467Z,3.38
2023-01-25T06:53:49.377Z,4.03
2023-01-25T06:56:22.109Z,3.08
2023-01-25T06:58:49.727Z,2.95
2023-01-25T07:01:22.325Z,2.60
2023-01-25T07:03:54.920Z,2.17
2023-01-25T07:06:22.402Z,1.85
2023-01-25T07:08:49.758Z,2.03
2023-01-25T07:11:19.077Z,1.95
2023-01-25T07:13:47.107Z,1.50
2023-01-25T07:16:19.943Z,1.55
2023-01-25T07:18:47.046Z,2.65
2023-01-25T07:21:15.919Z,2.97
2023-01-25T07:23:43.487Z,2.92
2023-01-25T07:26:20.967Z,2.58
2023-01-25T07:28:50.753Z,2.45
2023-01-25T07:31:19.295Z,3.53
2023-01-25T07:33:54.292Z,2.97
2023-01-25T07:36:21.749Z,2.88
2023-01-25T07:38:49.278Z,2.63
2023-01-25T07:41:16.631Z,2.70
2023-01-25T07:43:43.499Z,2.05
2023-01-25T07:46:13.499Z,1.60
2023-01-25T07:48:45.297Z,2.10
2023-01-25T07:51:23.086Z,3.10
2023-01-25T07:53:52.788Z,3.83
2023-01-25T07:56:20.525Z,4.35
2023-01-25T07:58:47.801Z,4.13
2023-01-25T08:01:17.513Z,3.80
2023-01-25T08:03:45.263Z,4.43
2023-01-25T08:06:13.927Z,3.13
2023-01-25T08:08:49.571Z,3.42
2023-01-25T08:11:22.705Z,3.08
2023-01-25T08:13:50.047Z,3.83
2023-01-25T08:16:19.852Z,3.08
2023-01-25T08:18:51.126Z,2.95
2023-01-25T08:21:21.566Z,2.60
2023-01-25T08:23:48.418Z,3.00
2023-01-25T08:26:17.223Z,2.55
2023-01-25T08:28:44.418Z,1.92
2023-01-25T08:31:14.849Z,2.40
2023-01-25T08:33:42.726Z,2.60
2023-01-25T08:36:10.552Z,4.00
2023-01-25T08:38:38.446Z,4.43
2023-01-25T08:41:06.065Z,4.82
2023-01-25T08:43:33.461Z,3.17
2023-01-25T08:46:00.560Z,4.03
2023-01-25T08:48:29.884Z,3.67
2023-01-25T08:50:56.968Z,4.18
2023-01-25T08:53:24.020Z,4.00
2023-01-25T08:55:50.984Z,4.18
2023-01-25T08:58:22.143Z,4.60
2023-01-25T09:00:49.757Z,4.70
2023-01-25T09:03:18.377Z,4.15
2023-01-25T09:05:45.500Z,3.08
2023-01-25T09:08:12.555Z,2.92
2023-01-25T09:10:39.407Z,2.30
2023-01-25T09:13:08.566Z,2.63
2023-01-25T09:15:35.668Z,2.00
2023-01-25T09:18:04.276Z,2.67
2023-01-25T09:20:34.239Z,2.28
2023-01-25T09:23:01.778Z,2.47
2023-01-25T09:25:28.588Z,2.58
2023-01-25T09:27:55.397Z,2.30
2023-01-25T09:30:33.586Z,2.00
2023-01-25T09:33:05.146Z,2.20
2023-01-25T09:35:31.918Z,3.10
2023-01-25T09:37:58.774Z,3.90
2023-01-25T09:40:29.737Z,3.40
2023-01-25T09:42:56.692Z,3.88
2023-01-25T09:45:32.725Z,2.95
2023-01-25T09:48:20.797Z,3.10
2023-01-25T09:50:53.707Z,3.67
2023-01-25T09:53:36.907Z,4.80
2023-01-25T09:56:27.996Z,3.92
2023-01-25T09:59:19.490Z,3.50
2023-01-25T10:01:56.765Z,3.72
2023-01-25T10:04:33.993Z,3.90
2023-01-25T10:07:20.847Z,4.72
2023-01-25T10:10:16.551Z,3.72
2023-01-25T10:12:43.454Z,3.25
2023-01-25T10:15:28.229Z,3.17
2023-01-25T10:18:03.554Z,2.70
2023-01-25T10:20:44.062Z,2.58
2023-01-25T10:23:25.887Z,2.70
2023-01-25T10:26:00.543Z,2.50
2023-01-25T10:29:00.481Z,2.70
2023-01-25T10:31:53.711Z,2.63
2023-01-25T10:34:24.358Z,2.85
2023-01-25T10:36:54.486Z,2.50
2023-01-25T10:39:22.023Z,2.95
2023-01-25T10:41:56.112Z,2.97
2023-01-25T10:44:26.221Z,3.05
2023-01-25T10:47:13.131Z,4.05
2023-01-25T10:49:55.234Z,4.85
2023-01-25T10:52:30.893Z,4.07
2023-01-25T10:55:14.896Z,2.95
2023-01-25T10:57:49.732Z,2.55
2023-01-25T11:00:52.257Z,2.58
2023-01-25T11:03:21.571Z,3.15
2023-01-25T11:05:56.363Z,3.05
2023-01-25T11:08:36.393Z,3.05
2023-01-25T11:11:23.300Z,4.20
2023-01-25T11:13:50.213Z,4.20
2023-01-25T11:16:24.344Z,4.10
2023-01-25T11:18:53.515Z,3.60
2023-01-25T11:21:23.758Z,3.70
2023-01-25T11:24:11.757Z,4.68
2023-01-25T11:26:40.787Z,4.45
2023-01-25T11:29:17.533Z,5.13
2023-01-25T11:31:55.454Z,5.22
2023-01-25T11:34:26.885Z,4.65
2023-01-25T11:37:22.644Z,3.97
2023-01-25T11:39:56.652Z,3.08
2023-01-25T11:42:23.587Z,3.22
2023-01-25T11:44:53.188Z,3.45
2023-01-25T11:47:38.907Z,3.95
2023-01-25T11:50:30.639Z,4.25
2023-01-25T11:53:27.712Z,4.55
2023-01-25T11:56:27.375Z,5.07
2023-01-25T11:59:06.177Z,3.85
2023-01-25T12:02:18.030Z,3.78
2023-01-25T12:05:02.317Z,3.20
2023-01-25T12:07:55.603Z,2.55
2023-01-25T12:10:25.542Z,2.58
2023-01-25T12:12:58.259Z,2.38
2023-01-25T12:15:28.241Z,3.20
2023-01-25T12:18:20.246Z,2.75
2023-01-25T12:21:08.678Z,2.95
2023-01-25T12:23:48.792Z,3.13
2023-01-25T12:26:21.814Z,2.58
2023-01-25T12:29:01.797Z,6.10
2023-01-25T12:31:53.658Z,5.10
2023-01-25T12:34:27.502Z,4.43
2023-01-25T12:36:54.873Z,4.57
2023-01-25T12:39:30.778Z,4.95
2023-01-25T12:42:24.664Z,5.05
2023-01-25T12:44:59.197Z,3.83
2023-01-25T12:47:46.328Z,4.13
2023-01-25T12:50:35.699Z,4.43
2023-01-25T12:53:28.783Z,3.30
2023-01-25T12:55:57.473Z,2.95
2023-01-25T12:58:39.089Z,3.58
2023-01-25T13:01:41.648Z,3.17
2023-01-25T13:04:26.634Z,3.08
2023-01-25T13:07:17.836Z,2.47
2023-01-25T13:09:49.843Z,2.42
2023-01-25T13:12:16.720Z,1.90
2023-01-25T13:14:44.264Z,2.05
2023-01-25T13:17:34.899Z,2.03
2023-01-25T13:20:23.737Z,1.60
2023-01-25T13:22:52.098Z,1.52
2023-01-25T13:25:20.299Z,1.90
2023-01-25T13:27:47.395Z,2.40
2023-01-25T13:30:30.846Z,3.88
2023-01-25T13:33:04.520Z,3.88
2023-01-25T13:35:42.384Z,2.63
2023-01-25T13:38:09.097Z,3.00
2023-01-25T13:40:38.161Z,2.95
2023-01-25T13:43:05.007Z,2.70
2023-01-25T13:45:36.281Z,3.10
2023-01-25T13:48:09.195Z,5.40
2023-01-25T13:50:50.631Z,4.28
2023-01-25T13:53:19.068Z,5.50
2023-01-25T13:55:48.855Z,6.43
2023-01-25T13:58:28.332Z,5.18
2023-01-25T14:01:08.673Z,4.80
2023-01-25T14:03:48.449Z,3.92
2023-01-25T14:06:26.294Z,3.63
2023-01-25T14:08:55.436Z,4.20
2023-01-25T14:11:28.072Z,4.07
2023-01-25T14:14:17.758Z,5.80
2023-01-25T14:16:45.142Z,6.63
2023-01-25T14:19:25.028Z,5.82
2023-01-25T14:22:26.391Z,5.00
2023-01-25T14:25:12.072Z,4.63
2023-01-25T14:27:53.855Z,3.30
2023-01-25T14:30:25.339Z,4.22
2023-01-25T14:32:54.785Z,5.03
2023-01-25T14:35:42.346Z,4.70
2023-01-25T14:38:27.791Z,5.20
2023-01-25T14:41:23.232Z,4.38
2023-01-25T14:43:53.160Z,4.13
2023-01-25T14:46:33.559Z,3.25
2023-01-25T14:49:15.223Z,2.70
2023-01-25T14:52:26.417Z,2.58
2023-01-25T14:55:00.538Z,2.50
2023-01-25T14:57:37.130Z,2.17
2023-01-25T15:00:24.671Z,2.50
2023-01-25T15:02:58.168Z,1.92
2023-01-25T15:05:30.590Z,2.42
2023-01-25T15:08:07.841Z,2.20
2023-01-25T15:10:49.326Z,2.92
2023-01-25T15:13:16.308Z,2.78
2023-01-25T15:15:54.603Z,2.95
2023-01-25T15:18:41.489Z,2.50
2023-01-25T15:21:16.797Z,2.45
2023-01-25T15:23:46.023Z,2.17
2023-01-25T15:26:14.460Z,2.67
2023-01-25T15:28:41.687Z,2.97
2023-01-25T15:31:40.157Z,2.58
2023-01-25T15:34:11.338Z,2.95
2023-01-25T15:36:38.124Z,2.70
2023-01-25T15:39:04.907Z,3.33
2023-01-25T15:41:31.696Z,4.60
2023-01-25T15:43:58.613Z,3.75
2023-01-25T15:46:29.405Z,3.78
2023-01-25T15:48:56.453Z,4.22
2023-01-25T15:51:23.606Z,4.70
2023-01-25T15:53:50.475Z,4.35
2023-01-25T15:56:24.289Z,5.55
2023-01-25T15:58:53.473Z,5.90
2023-01-25T16:01:21.848Z,6.95
2023-01-25T16:03:48.789Z,5.55
2023-01-25T16:06:21.698Z,6.03
2023-01-25T16:08:48.531Z,5.75
2023-01-25T16:11:15.331Z,4.85
2023-01-25T16:13:42.146Z,4.70
2023-01-25T16:16:21.231Z,4.30
2023-01-25T16:18:48.914Z,4.07
2023-01-25T16:21:16.126Z,3.22
2023-01-25T16:23:42.986Z,3.13
2023-01-25T16:26:17.626Z,2.70
2023-01-25T16:28:44.435Z,2.60
2023-01-25T16:31:30.866Z,2.30
2023-01-25T16:33:58.631Z,2.33
2023-01-25T16:36:26.511Z,1.35
2023-01-25T16:38:53.642Z,1.65
2023-01-25T16:41:20.603Z,1.73
2023-01-25T16:43:48.724Z,1.63
2023-01-25T16:46:21.208Z,2.40
2023-01-25T16:48:51.048Z,2.03
2023-01-25T16:51:19.535Z,2.17
2023-01-25T16:53:47.611Z,1.90
2023-01-25T16:56:20.757Z,1.88
2023-01-25T16:58:48.602Z,2.13
2023-01-25T17:01:17.856Z,2.20
2023-01-25T17:03:45.100Z,2.95
2023-01-25T17:06:19.642Z,4.10
2023-01-25T17:08:47.467Z,3.25
2023-01-25T17:11:15.139Z,2.58
2023-01-25T17:13:42.085Z,1.95
2023-01-25T17:16:09.055Z,2.15
2023-01-25T17:18:35.863Z,1.85
2023-01-25T17:21:06.443Z,3.47
2023-01-25T17:23:37.754Z,3.20
2023-01-25T17:26:06.892Z,2.50
2023-01-25T17:28:34.072Z,2.55
2023-01-25T17:31:00.968Z,2.10
2023-01-25T17:33:29.021Z,2.67
2023-01-25T17:35:58.653Z,2.58
2023-01-25T17:38:25.904Z,3.50
2023-01-25T17:40:53.187Z,3.30
2023-01-25T17:43:20.443Z,4.25
2023-01-25T17:45:47.591Z,3.15
2023-01-25T17:48:14.398Z,3.17
2023-01-25T17:50:41.201Z,2.90
2023-01-25T17:53:07.990Z,2.58
2023-01-25T17:55:37.119Z,2.60
2023-01-25T17:58:05.103Z,2.03
2023-01-25T18:00:32.273Z,2.40
2023-01-25T18:02:59.100Z,1.80
2023-01-25T18:05:29.183Z,2.47
2023-01-25T18:07:56.035Z,3.22
2023-01-25T18:10:23.511Z,3.03
2023-01-25T18:13:03.610Z,2.75
2023-01-25T18:15:32.167Z,2.92
2023-01-25T18:18:00.091Z,2.78
2023-01-25T18:20:27.120Z,3.13
2023-01-25T18:22:54.307Z,4.32
2023-01-25T18:25:36.295Z,4.05
2023-01-25T18:28:03.902Z,4.03
2023-01-25T18:30:35.489Z,4.45
2023-01-25T18:33:02.581Z,5.78
2023-01-25T18:35:30.307Z,4.78
2023-01-25T18:37:57.719Z,4.30
2023-01-25T18:40:25.101Z,4.00
2023-01-25T18:42:53.053Z,4.72
2023-01-25T18:45:20.053Z,3.78
2023-01-25T18:47:47.013Z,3.50
2023-01-25T18:50:16.263Z,2.90
2023-01-25T18:52:44.361Z,2.25
2023-01-25T18:55:12.392Z,2.65
2023-01-25T18:57:43.410Z,2.58
2023-01-25T19:00:14.182Z,3.17
2023-01-25T19:02:41.435Z,2.25
2023-01-25T19:05:09.172Z,2.10
2023-01-25T19:07:36.391Z,2.33
2023-01-25T19:10:05.183Z,1.95
2023-01-25T19:12:32.012Z,1.63
2023-01-25T19:14:59.661Z,2.13
2023-01-25T19:17:26.483Z,2.38
2023-01-25T19:19:53.279Z,2.42
2023-01-25T19:22:20.103Z,2.38
2023-01-25T19:24:46.927Z,2.78
2023-01-25T19:27:13.757Z,2.22
2023-01-25T19:29:40.591Z,3.22
2023-01-25T19:32:07.453Z,3.30
2023-01-25T19:34:34.244Z,2.42
2023-01-25T19:37:01.801Z,3.13
2023-01-25T19:39:28.580Z,2.75
2023-01-25T19:41:55.347Z,2.65
2023-01-25T19:44:22.324Z,2.00
2023-01-25T19:46:49.485Z,2.25
2023-01-25T19:49:16.711Z,2.60
2023-01-25T19:51:48.868Z,2.47
2023-01-25T19:54:17.842Z,2.38
2023-01-25T19:56:49.484Z,2.50
2023-01-25T19:59:17.569Z,2.47
2023-01-25T20:01:46.282Z,2.50
2023-01-25T20:04:16.104Z,2.38
2023-01-25T20:06:43.496Z,2.53
2023-01-25T20:09:14.976Z,1.70
2023-01-25T20:11:42.397Z,2.30
2023-01-25T20:14:12.464Z,2.55
2023-01-25T20:16:39.421Z,2.50
2023-01-25T20:19:06.364Z,1.70
2023-01-25T20:21:33.811Z,2.30
2023-01-25T20:24:04.673Z,2.05
2023-01-25T20:26:34.786Z,2.10
2023-01-25T20:29:01.629Z,2.23
2023-01-25T20:31:36.619Z,1.80
2023-01-25T20:34:06.199Z,1.80
2023-01-25T20:36:34.938Z,1.90
2023-01-25T20:39:02.795Z,1.80
2023-01-25T20:41:30.017Z,1.48
2023-01-25T20:44:02.085Z,1.20
2023-01-25T20:46:33.760Z,1.38
2023-01-25T20:49:01.996Z,1.42
2023-01-25T20:51:29.601Z,1.70
2023-01-25T20:53:57.406Z,2.10
2023-01-25T20:56:24.561Z,1.80
2023-01-25T20:58:52.158Z,1.95
2023-01-25T21:01:30.545Z,1.88
2023-01-25T21:03:58.270Z,1.73
2023-01-25T21:06:26.759Z,1.45
2023-01-25T21:08:53.772Z,1.50
2023-01-25T21:11:23.021Z,1.63
2023-01-25T21:13:49.902Z,1.45
2023-01-25T21:16:21.695Z,1.58
2023-01-25T21:18:51.235Z,1.63
2023-01-25T21:21:28.424Z,2.10
2023-01-25T21:23:58.182Z,1.52
2023-01-25T21:26:28.354Z,1.63
2023-01-25T21:28:55.311Z,1.70
2023-01-25T21:31:25.391Z,1.13
2023-01-25T21:33:53.292Z,1.88
2023-01-25T21:36:21.082Z,2.00
2023-01-25T21:38:50.025Z,2.90
2023-01-25T21:41:22.307Z,2.10
2023-01-25T21:44:08.430Z,2.28
2023-01-25T21:46:35.565Z,3.47
2023-01-25T21:49:24.377Z,4.85
2023-01-25T21:51:53.035Z,3.15
2023-01-25T21:54:21.136Z,3.22
2023-01-25T21:56:49.335Z,3.78
2023-01-25T21:59:16.523Z,2.55
2023-01-25T22:01:44.191Z,2.42
2023-01-25T22:04:11.912Z,2.10
2023-01-25T22:06:39.164Z,2.65
2023-01-25T22:09:06.908Z,2.70
2023-01-25T22:11:33.908Z,2.35
2023-01-25T22:14:01.130Z,2.20
2023-01-25T22:16:29.426Z,1.85
2023-01-25T22:18:56.775Z,1.35
2023-01-25T22:21:27.319Z,1.40
2023-01-25T22:23:54.262Z,1.40
2023-01-25T22:26:23.014Z,1.33
2023-01-25T22:28:52.463Z,1.50
2023-01-25T22:31:22.909Z,1.88
2023-01-25T22:33:52.548Z,1.25
2023-01-25T22:36:21.575Z,1.38
2023-01-25T22:38:48.917Z,1.98
2023-01-25T22:41:20.897Z,1.48
2023-01-25T22:43:48.223Z,1.60
2023-01-25T22:46:20.813Z,1.55
2023-01-25T22:48:47.989Z,1.52
2023-01-25T22:51:18.934Z,1.38
2023-01-25T22:53:46.463Z,1.40
2023-01-25T22:56:18.474Z,1.92
2023-01-25T22:58:46.501Z,1.75
2023-01-25T23:01:16.576Z,2.70
2023-01-25T23:03:43.658Z,2.28
2023-01-25T23:06:16.348Z,1.90
2023-01-25T23:08:43.877Z,1.80
2023-01-25T23:11:19.961Z,2.10
2023-01-25T23:14:07.717Z,1.67
2023-01-25T23:16:35.691Z,1.90
2023-01-25T23:19:03.554Z,1.50
2023-01-25T23:21:31.178Z,1.70
2023-01-25T23:24:02.446Z,2.00
2023-01-25T23:26:37.468Z,1.85
2023-01-25T23:29:07.253Z,2.55
2023-01-25T23:31:34.268Z,2.38
2023-01-25T23:34:03.368Z,1.73
2023-01-25T23:36:32.854Z,2.15
2023-01-25T23:38:59.986Z,2.83
2023-01-25T23:41:28.812Z,2.83
2023-01-25T23:43:56.388Z,2.05
2023-01-25T23:46:24.086Z,1.67
2023-01-25T23:48:51.054Z,1.40
2023-01-25T23:51:18.334Z,2.20
2023-01-25T23:53:45.764Z,2.97
2023-01-25T23:56:15.565Z,3.70
2023-01-25T23:58:42.335Z,2.70
